createdAt,value
2022-08-25T00:00:33.562Z,51.323437
2022-08-25T00:01:33.573Z,51.323433
2022-08-25T00:02:33.572Z,51.323425
2022-08-25T00:03:35.943Z,51.323441
2022-08-25T00:04:34.481Z,51.323441
2022-08-25T00:05:33.751Z,51.323441
2022-08-25T00:06:33.465Z,51.323456
2022-08-25T00:07:33.418Z,51.323460
2022-08-25T00:08:33.405Z,51.323437
2022-08-25T00:09:33.380Z,51.323441
2022-08-25T00:10:33.356Z,51.323441
2022-08-25T00:11:33.364Z,51.323444
2022-08-25T00:12:33.307Z,51.323429
2022-08-25T00:13:33.295Z,51.323425
2022-08-25T00:14:33.284Z,51.323441
2022-08-25T00:15:33.279Z,51.323456
2022-08-25T00:16:33.267Z,51.323452
2022-08-25T00:17:33.223Z,51.323437
2022-08-25T00:18:33.208Z,51.323452
2022-08-25T00:19:33.190Z,51.323448
2022-08-25T00:20:33.164Z,51.323437
2022-08-25T00:21:33.174Z,51.323437
2022-08-25T00:22:33.130Z,51.323421
2022-08-25T00:23:33.111Z,51.323433
2022-08-25T00:24:33.088Z,51.323429
2022-08-25T00:25:33.069Z,51.323418
2022-08-25T00:26:33.079Z,51.323418
2022-08-25T00:27:33.033Z,51.323429
2022-08-25T00:28:33.013Z,51.323437
2022-08-25T00:29:32.995Z,51.323456
2022-08-25T00:30:32.974Z,51.323441
2022-08-25T00:31:38.324Z,51.323441
2022-08-25T00:32:33.941Z,51.323421
2022-08-25T00:33:32.919Z,51.323425
2022-08-25T00:34:32.898Z,51.323448
2022-08-25T00:35:32.879Z,51.323441
2022-08-25T00:36:32.890Z,51.323429
2022-08-25T00:37:32.867Z,51.323418
2022-08-25T00:38:32.825Z,51.323421
2022-08-25T00:39:32.808Z,51.323425
2022-08-25T00:40:32.815Z,51.323441
2022-08-25T00:41:32.796Z,51.323452
2022-08-25T00:42:32.747Z,51.323444
2022-08-25T00:43:32.731Z,51.323429
2022-08-25T00:44:32.708Z,51.323410
2022-08-25T00:45:32.694Z,51.323425
2022-08-25T00:46:32.742Z,51.323433
2022-08-25T00:47:32.652Z,51.323406
2022-08-25T00:48:32.628Z,51.323418
2022-08-25T00:49:32.613Z,51.323429
2022-08-25T00:50:32.592Z,51.323441
2022-08-25T00:51:32.604Z,51.323421
2022-08-25T00:52:32.552Z,51.323410
2022-08-25T00:53:32.531Z,51.323387
2022-08-25T00:54:32.512Z,51.323402
2022-08-25T00:55:32.496Z,51.323402
2022-08-25T00:56:32.504Z,51.323421
2022-08-25T00:57:34.613Z,51.323414
2022-08-25T00:58:32.440Z,51.323425
2022-08-25T00:59:32.418Z,51.323433
2022-08-25T01:00:32.402Z,51.323418
2022-08-25T01:01:32.472Z,51.323425
2022-08-25T01:02:32.432Z,51.323429
2022-08-25T01:03:33.534Z,51.323425
2022-08-25T01:04:32.321Z,51.323433
2022-08-25T01:05:32.297Z,51.323429
2022-08-25T01:06:32.308Z,51.323418
2022-08-25T01:07:32.258Z,51.323460
2022-08-25T01:08:32.303Z,51.323433
2022-08-25T01:09:32.225Z,51.323429
2022-08-25T01:10:32.206Z,51.323421
2022-08-25T01:11:32.214Z,51.323456
2022-08-25T01:12:32.163Z,51.323421
2022-08-25T01:13:32.143Z,51.323421
2022-08-25T01:14:32.126Z,51.323406
2022-08-25T01:15:32.166Z,51.323410
2022-08-25T01:16:32.113Z,51.323414
2022-08-25T01:17:32.093Z,51.323429
2022-08-25T01:18:32.043Z,51.323425
2022-08-25T01:19:32.027Z,51.323418
2022-08-25T01:20:32.005Z,51.323425
2022-08-25T01:21:32.016Z,51.323425
2022-08-25T01:22:31.972Z,51.323414
2022-08-25T01:23:31.950Z,51.323410
2022-08-25T01:24:31.932Z,51.323433
2022-08-25T01:25:31.915Z,51.323421
2022-08-25T01:26:31.895Z,51.323402
2022-08-25T01:27:31.949Z,51.323410
2022-08-25T01:28:31.853Z,51.323410
2022-08-25T01:29:31.838Z,51.323429
2022-08-25T01:30:31.842Z,51.323433
2022-08-25T01:31:31.832Z,51.323429
2022-08-25T01:32:31.814Z,51.323437
2022-08-25T01:33:31.763Z,51.323433
2022-08-25T01:34:31.738Z,51.323433
2022-08-25T01:35:31.717Z,51.323414
2022-08-25T01:36:31.695Z,51.323391
2022-08-25T01:37:31.726Z,51.323387
2022-08-25T01:38:31.661Z,51.323410
2022-08-25T01:39:31.638Z,51.323414
2022-08-25T01:40:31.692Z,51.323406
2022-08-25T01:41:31.625Z,51.323391
2022-08-25T01:42:31.698Z,51.323429
2022-08-25T01:43:31.569Z,51.323441
2022-08-25T01:44:31.537Z,51.323414
2022-08-25T01:45:31.518Z,51.323425
2022-08-25T01:46:31.574Z,51.323418
2022-08-25T01:47:31.547Z,51.323399
2022-08-25T01:48:31.460Z,51.323441
2022-08-25T01:49:31.438Z,51.323421
2022-08-25T01:50:31.421Z,51.323402
2022-08-25T01:51:31.428Z,51.323414
2022-08-25T01:52:31.409Z,51.323425
2022-08-25T01:53:33.456Z,51.323441
2022-08-25T01:54:31.340Z,51.323406
2022-08-25T01:55:31.322Z,51.323383
2022-08-25T01:56:31.328Z,51.323372
2022-08-25T01:57:31.278Z,51.323406
2022-08-25T01:58:31.257Z,51.323402
2022-08-25T01:59:31.235Z,51.323402
2022-08-25T02:00:31.217Z,51.323402
2022-08-25T02:01:31.235Z,51.323414
2022-08-25T02:02:31.605Z,51.323391
2022-08-25T02:03:31.159Z,51.323368
2022-08-25T02:04:31.138Z,51.323414
2022-08-25T02:05:31.117Z,51.323387
2022-08-25T02:06:31.099Z,51.323421
2022-08-25T02:07:31.104Z,51.323418
2022-08-25T02:08:31.055Z,51.323402
2022-08-25T02:09:31.037Z,51.323395
2022-08-25T02:10:31.013Z,51.323406
2022-08-25T02:11:31.026Z,51.323433
2022-08-25T02:12:30.976Z,51.323414
2022-08-25T02:13:32.481Z,51.323414
2022-08-25T02:14:30.943Z,51.323406
2022-08-25T02:15:30.917Z,51.323402
2022-08-25T02:16:30.958Z,51.323376
2022-08-25T02:17:30.881Z,51.323391
2022-08-25T02:18:30.871Z,51.323425
2022-08-25T02:19:30.836Z,51.323414
2022-08-25T02:20:30.821Z,51.323414
2022-08-25T02:21:30.834Z,51.323387
2022-08-25T02:22:30.779Z,51.323399
2022-08-25T02:23:30.760Z,51.323399
2022-08-25T02:24:30.739Z,51.323410
2022-08-25T02:25:30.717Z,51.323418
2022-08-25T02:26:30.727Z,51.323418
2022-08-25T02:27:30.680Z,51.323402
2022-08-25T02:28:30.661Z,51.323414
2022-08-25T02:29:30.638Z,51.323402
2022-08-25T02:30:30.661Z,51.323402
2022-08-25T02:31:30.632Z,51.323414
2022-08-25T02:32:30.581Z,51.323425
2022-08-25T02:33:30.561Z,51.323418
2022-08-25T02:34:30.535Z,51.323402
2022-08-25T02:35:30.521Z,51.323406
2022-08-25T02:36:30.525Z,51.323402
2022-08-25T02:37:30.477Z,51.323406
2022-08-25T02:38:30.457Z,51.323429
2022-08-25T02:39:30.439Z,51.323444
2022-08-25T02:40:30.464Z,51.323441
2022-08-25T02:41:31.611Z,51.323429
2022-08-25T02:42:30.382Z,51.323414
2022-08-25T02:43:30.353Z,51.323414
2022-08-25T02:44:30.334Z,51.323421
2022-08-25T02:45:30.313Z,51.323402
2022-08-25T02:46:30.338Z,51.323399
2022-08-25T02:47:30.275Z,51.323418
2022-08-25T02:48:30.253Z,51.323418
2022-08-25T02:49:30.234Z,51.323418
2022-08-25T02:50:30.216Z,51.323421
2022-08-25T02:51:30.406Z,51.323421
2022-08-25T02:52:30.173Z,51.323425
2022-08-25T02:53:30.164Z,51.323425
2022-08-25T02:54:30.133Z,51.323421
2022-08-25T02:55:30.113Z,51.323414
2022-08-25T02:56:30.129Z,51.323418
2022-08-25T02:57:30.099Z,51.323429
2022-08-25T02:58:30.052Z,51.323429
2022-08-25T02:59:30.037Z,51.323418
2022-08-25T03:00:30.019Z,51.323410
2022-08-25T03:01:30.044Z,51.323418
2022-08-25T03:02:29.997Z,51.323433
2022-08-25T03:03:29.956Z,51.323425
2022-08-25T03:04:29.963Z,51.323410
2022-08-25T03:05:29.915Z,51.323395
2022-08-25T03:06:29.890Z,51.323402
2022-08-25T03:07:29.896Z,51.323406
2022-08-25T03:08:29.853Z,51.323406
2022-08-25T03:09:29.838Z,51.323414
2022-08-25T03:10:29.814Z,51.323418
2022-08-25T03:11:29.820Z,51.323414
2022-08-25T03:12:29.784Z,51.323429
2022-08-25T03:13:29.752Z,51.323414
2022-08-25T03:14:29.731Z,51.323402
2022-08-25T03:15:30.560Z,51.323380
2022-08-25T03:16:29.764Z,51.323391
2022-08-25T03:17:29.673Z,51.323406
2022-08-25T03:18:29.657Z,51.323383
2022-08-25T03:19:29.636Z,51.323418
2022-08-25T03:20:29.616Z,51.323421
2022-08-25T03:21:29.621Z,51.323421
2022-08-25T03:22:29.575Z,51.323414
2022-08-25T03:23:29.556Z,51.323414
2022-08-25T03:24:29.536Z,51.323418
2022-08-25T03:25:29.515Z,51.323421
2022-08-25T03:26:29.525Z,51.323425
2022-08-25T03:27:29.470Z,51.323414
2022-08-25T03:28:30.081Z,51.323418
2022-08-25T03:29:29.432Z,51.323410
2022-08-25T03:30:29.411Z,51.323402
2022-08-25T03:31:29.446Z,51.323383
2022-08-25T03:32:29.373Z,51.323406
2022-08-25T03:33:29.356Z,51.323414
2022-08-25T03:34:29.334Z,51.323418
2022-08-25T03:35:29.314Z,51.323414
2022-08-25T03:36:29.322Z,51.323402
2022-08-25T03:37:29.276Z,51.323414
2022-08-25T03:38:29.254Z,51.323421
2022-08-25T03:39:29.235Z,51.323414
2022-08-25T03:40:29.326Z,51.323418
2022-08-25T03:41:29.329Z,51.323425
2022-08-25T03:42:29.172Z,51.323406
2022-08-25T03:43:29.151Z,51.323410
2022-08-25T03:44:29.132Z,51.323425
2022-08-25T03:45:29.164Z,51.323410
2022-08-25T03:46:29.126Z,51.323421
2022-08-25T03:47:29.074Z,51.323429
2022-08-25T03:48:29.054Z,51.323433
2022-08-25T03:49:29.033Z,51.323441
2022-08-25T03:50:29.010Z,51.323429
2022-08-25T03:51:29.029Z,51.323437
2022-08-25T03:52:28.981Z,51.323444
2022-08-25T03:53:28.955Z,51.323437
2022-08-25T03:54:28.932Z,51.323437
2022-08-25T03:55:28.913Z,51.323456
2022-08-25T03:56:28.922Z,51.323444
2022-08-25T03:57:28.873Z,51.323444
2022-08-25T03:58:28.853Z,51.323429
2022-08-25T03:59:28.843Z,51.323429
2022-08-25T04:00:28.811Z,51.323433
2022-08-25T04:01:28.874Z,51.323441
2022-08-25T04:02:28.826Z,51.323444
2022-08-25T04:03:28.756Z,51.323444
2022-08-25T04:04:28.733Z,51.323444
2022-08-25T04:05:28.715Z,51.323425
2022-08-25T04:06:28.692Z,51.323421
2022-08-25T04:07:28.693Z,51.323418
2022-08-25T04:08:28.651Z,51.323425
2022-08-25T04:09:28.633Z,51.323425
2022-08-25T04:10:28.616Z,51.323425
2022-08-25T04:11:28.591Z,51.323433
2022-08-25T04:12:28.599Z,51.323429
2022-08-25T04:13:28.560Z,51.323425
2022-08-25T04:14:28.532Z,51.323441
2022-08-25T04:15:30.278Z,51.323448
2022-08-25T04:16:28.539Z,51.323444
2022-08-25T04:17:28.499Z,51.323421
2022-08-25T04:18:28.449Z,51.323429
2022-08-25T04:19:28.434Z,51.323425
2022-08-25T04:20:28.410Z,51.323433
2022-08-25T04:21:28.392Z,51.323460
2022-08-25T04:22:28.818Z,51.323483
2022-08-25T04:23:28.351Z,51.323475
2022-08-25T04:24:28.331Z,51.323441
2022-08-25T04:25:28.310Z,51.323452
2022-08-25T04:26:28.291Z,51.323498
2022-08-25T04:27:28.296Z,51.323448
2022-08-25T04:28:28.259Z,51.323429
2022-08-25T04:29:28.229Z,51.323410
2022-08-25T04:30:28.208Z,51.323441
2022-08-25T04:31:28.247Z,51.323437
2022-08-25T04:32:28.196Z,51.323418
2022-08-25T04:33:28.144Z,51.323418
2022-08-25T04:34:29.760Z,51.323429
2022-08-25T04:35:28.107Z,51.323421
2022-08-25T04:36:28.113Z,51.323437
2022-08-25T04:37:28.093Z,51.323441
2022-08-25T04:38:28.043Z,51.323437
2022-08-25T04:39:28.023Z,51.323437
2022-08-25T04:40:29.123Z,51.323425
2022-08-25T04:41:27.985Z,51.323433
2022-08-25T04:42:27.990Z,51.323433
2022-08-25T04:43:27.940Z,51.323437
2022-08-25T04:44:27.921Z,51.323475
2022-08-25T04:45:27.916Z,51.323475
2022-08-25T04:46:27.877Z,51.323475
2022-08-25T04:47:27.885Z,51.323387
2022-08-25T04:48:27.839Z,51.323433
2022-08-25T04:49:27.817Z,51.323433
2022-08-25T04:50:27.794Z,51.323406
2022-08-25T04:51:27.781Z,51.323353
2022-08-25T04:52:27.784Z,51.323402
2022-08-25T04:53:27.744Z,51.323475
2022-08-25T04:54:27.721Z,51.323441
2022-08-25T04:55:27.700Z,51.323376
2022-08-25T04:56:27.680Z,51.323380
2022-08-25T04:57:27.686Z,51.323421
2022-08-25T04:58:27.639Z,51.323421
2022-08-25T04:59:30.052Z,51.323391
2022-08-25T05:00:27.602Z,51.323219
2022-08-25T05:01:27.625Z,51.323227
2022-08-25T05:02:27.594Z,51.323399
2022-08-25T05:03:27.553Z,51.323421
2022-08-25T05:04:28.009Z,51.323444
2022-08-25T05:05:27.515Z,51.323505
2022-08-25T05:06:27.520Z,51.323513
2022-08-25T05:07:27.478Z,51.323425
2022-08-25T05:08:27.458Z,51.323425
2022-08-25T05:09:27.441Z,51.323448
2022-08-25T05:10:27.419Z,51.323433
2022-08-25T05:11:27.421Z,51.323414
2022-08-25T05:12:29.021Z,51.323429
2022-08-25T05:13:27.362Z,51.323421
2022-08-25T05:14:27.344Z,51.323387
2022-08-25T05:15:27.328Z,51.323406
2022-08-25T05:16:27.395Z,51.323414
2022-08-25T05:17:27.294Z,51.323421
2022-08-25T05:18:27.271Z,51.323399
2022-08-25T05:19:27.252Z,51.323380
2022-08-25T05:20:27.234Z,51.323402
2022-08-25T05:21:27.249Z,51.323425
2022-08-25T05:22:27.196Z,51.323429
2022-08-25T05:23:28.186Z,51.323406
2022-08-25T05:24:27.165Z,51.323391
2022-08-25T05:25:27.158Z,51.323395
2022-08-25T05:26:27.189Z,51.323410
2022-08-25T05:27:27.128Z,51.323387
2022-08-25T05:28:27.095Z,51.323425
2022-08-25T05:29:27.176Z,51.323395
2022-08-25T05:30:27.058Z,51.323372
2022-08-25T05:31:27.171Z,51.323441
2022-08-25T05:32:27.049Z,51.323414
2022-08-25T05:33:27.002Z,51.323387
2022-08-25T05:34:26.988Z,51.323402
2022-08-25T05:35:26.972Z,51.323406
2022-08-25T05:36:26.952Z,51.323433
2022-08-25T05:37:26.959Z,51.323391
2022-08-25T05:38:26.918Z,51.323414
2022-08-25T05:39:27.072Z,51.323433
2022-08-25T05:40:26.923Z,51.323410
2022-08-25T05:41:26.865Z,51.323380
2022-08-25T05:42:26.874Z,51.323410
2022-08-25T05:43:26.832Z,51.323391
2022-08-25T05:44:26.812Z,51.323410
2022-08-25T05:45:26.856Z,51.323414
2022-08-25T05:46:26.778Z,51.323441
2022-08-25T05:47:26.787Z,51.323429
2022-08-25T05:48:26.745Z,51.323414
2022-08-25T05:49:26.728Z,51.323402
2022-08-25T05:50:26.707Z,51.323391
2022-08-25T05:51:26.788Z,51.323414
2022-08-25T05:52:26.701Z,51.323418
2022-08-25T05:53:26.657Z,51.323414
2022-08-25T05:54:26.637Z,51.323437
2022-08-25T05:55:26.623Z,51.323456
2022-08-25T05:56:26.605Z,51.323452
2022-08-25T05:57:26.618Z,51.323429
2022-08-25T05:58:26.569Z,51.323414
2022-08-25T05:59:26.553Z,51.323418
2022-08-25T06:00:26.536Z,51.323437
2022-08-25T06:01:26.567Z,51.323418
2022-08-25T06:02:26.534Z,51.323456
2022-08-25T06:03:26.535Z,51.323418
2022-08-25T06:04:26.474Z,51.323421
2022-08-25T06:05:26.462Z,51.323391
2022-08-25T06:06:26.443Z,51.323380
2022-08-25T06:07:26.447Z,51.323391
2022-08-25T06:08:26.406Z,51.323402
2022-08-25T06:09:26.395Z,51.323429
2022-08-25T06:10:26.371Z,51.323414
2022-08-25T06:11:26.351Z,51.323418
2022-08-25T06:12:26.358Z,51.323433
2022-08-25T06:13:26.934Z,51.323402
2022-08-25T06:14:26.307Z,51.323414
2022-08-25T06:15:26.291Z,51.323395
2022-08-25T06:16:26.334Z,51.323395
2022-08-25T06:17:26.294Z,51.323376
2022-08-25T06:18:26.243Z,51.323391
2022-08-25T06:19:26.226Z,51.323406
2022-08-25T06:20:26.212Z,51.323421
2022-08-25T06:21:26.198Z,51.323418
2022-08-25T06:22:26.209Z,51.323387
2022-08-25T06:23:26.161Z,51.323395
2022-08-25T06:24:26.150Z,51.323410
2022-08-25T06:25:26.133Z,51.323402
2022-08-25T06:26:26.120Z,51.323399
2022-08-25T06:27:26.130Z,51.323399
2022-08-25T06:28:26.085Z,51.323395
2022-08-25T06:29:26.069Z,51.323406
2022-08-25T06:30:28.870Z,51.323395
2022-08-25T06:31:26.110Z,51.323414
2022-08-25T06:32:26.022Z,51.323380
2022-08-25T06:33:26.008Z,51.323380
2022-08-25T06:34:26.004Z,51.323383
2022-08-25T06:35:25.976Z,51.323357
2022-08-25T06:36:25.986Z,51.323353
2022-08-25T06:37:25.950Z,51.323349
2022-08-25T06:38:25.930Z,51.323349
2022-08-25T06:39:25.913Z,51.323345
2022-08-25T06:40:25.976Z,51.323372
2022-08-25T06:41:29.928Z,51.323395
2022-08-25T06:42:26.871Z,51.323364
2022-08-25T06:43:25.854Z,51.323383
2022-08-25T06:44:25.843Z,51.323368
2022-08-25T06:45:25.827Z,51.323372
2022-08-25T06:46:35.846Z,51.323364
2022-08-25T06:47:26.869Z,51.323357
2022-08-25T06:48:25.781Z,51.323376
2022-08-25T06:49:25.760Z,51.323372
2022-08-25T06:50:25.759Z,51.323383
2022-08-25T06:51:25.761Z,51.323391
2022-08-25T06:52:29.190Z,51.323402
2022-08-25T06:53:25.703Z,51.323399
2022-08-25T06:54:25.691Z,51.323383
2022-08-25T06:55:25.675Z,51.323376
2022-08-25T06:56:25.687Z,51.323376
2022-08-25T06:57:25.650Z,51.323345
2022-08-25T06:58:25.634Z,51.323368
2022-08-25T06:59:25.613Z,51.323334
2022-08-25T07:00:30.279Z,51.323357
2022-08-25T07:01:25.632Z,51.323338
2022-08-25T07:02:25.622Z,51.323345
2022-08-25T07:03:25.559Z,51.323360
2022-08-25T07:04:25.538Z,51.323387
2022-08-25T07:05:33.631Z,51.323380
2022-08-25T07:06:27.535Z,51.323345
2022-08-25T07:07:25.492Z,51.323353
2022-08-25T07:08:26.481Z,51.323330
2022-08-25T07:09:25.465Z,51.323334
2022-08-25T07:10:25.453Z,51.323349
2022-08-25T07:11:25.462Z,51.323349
2022-08-25T07:12:25.419Z,51.323353
2022-08-25T07:13:25.417Z,51.323345
2022-08-25T07:14:25.385Z,51.323311
2022-08-25T07:15:25.378Z,51.323326
2022-08-25T07:16:29.891Z,51.323341
2022-08-25T07:17:26.343Z,51.323338
2022-08-25T07:18:25.329Z,51.323334
2022-08-25T07:19:25.314Z,51.323345
2022-08-25T07:21:28.940Z,51.323341
2022-08-25T07:22:27.273Z,51.323360
2022-08-25T07:23:25.252Z,51.323372
2022-08-25T07:24:25.237Z,51.323387
2022-08-25T07:25:25.223Z,51.323357
2022-08-25T07:26:37.168Z,51.323353
2022-08-25T07:27:27.197Z,51.323334
2022-08-25T07:28:25.338Z,51.323349
2022-08-25T07:29:32.008Z,51.323380
2022-08-25T07:30:26.148Z,51.323383
2022-08-25T07:31:29.456Z,51.323372
2022-08-25T07:32:25.120Z,51.323357
2022-08-25T07:33:25.097Z,51.323349
2022-08-25T07:34:25.611Z,51.323387
2022-08-25T07:35:26.174Z,51.323387
2022-08-25T07:36:25.079Z,51.323376
2022-08-25T07:37:47.594Z,51.323341
2022-08-25T07:38:27.027Z,51.323341
2022-08-25T07:39:25.011Z,51.323395
2022-08-25T07:40:25.072Z,51.323402
2022-08-25T07:41:25.005Z,51.323410
2022-08-25T07:42:24.963Z,51.323399
2022-08-25T07:43:24.949Z,51.323383
2022-08-25T07:44:24.932Z,51.323402
2022-08-25T07:45:24.915Z,51.323395
2022-08-25T07:46:24.986Z,51.323402
2022-08-25T07:47:24.889Z,51.323429
2022-08-25T07:48:24.868Z,51.323425
2022-08-25T07:49:24.852Z,51.323406
2022-08-25T07:50:24.841Z,51.323406
2022-08-25T07:51:24.853Z,51.323387
2022-08-25T07:52:24.807Z,51.323410
2022-08-25T07:53:24.792Z,51.323395
2022-08-25T07:54:24.778Z,51.323402
2022-08-25T07:55:25.762Z,51.323433
2022-08-25T07:56:24.780Z,51.323421
2022-08-25T07:57:24.731Z,51.323418
2022-08-25T07:58:24.716Z,51.323410
2022-08-25T07:59:24.700Z,51.323395
2022-08-25T08:00:24.692Z,51.323433
2022-08-25T08:01:24.757Z,51.323425
2022-08-25T08:02:24.886Z,51.323399
2022-08-25T08:03:44.527Z,51.323353
2022-08-25T08:04:26.737Z,51.323383
2022-08-25T08:05:24.614Z,51.323410
2022-08-25T08:06:24.614Z,51.323402
2022-08-25T08:07:25.734Z,51.323425
2022-08-25T08:08:25.556Z,51.323418
2022-08-25T08:09:24.541Z,51.323406
2022-08-25T08:11:26.536Z,51.323414
2022-08-25T08:12:24.492Z,51.323425
2022-08-25T08:13:24.475Z,51.323421
2022-08-25T08:14:24.460Z,51.323460
2022-08-25T08:15:24.440Z,51.323448
2022-08-25T08:16:24.467Z,51.323429
2022-08-25T08:17:24.404Z,51.323421
2022-08-25T08:18:24.388Z,51.323425
2022-08-25T08:19:24.375Z,51.323425
2022-08-25T08:20:24.354Z,51.323441
2022-08-25T08:21:24.368Z,51.323441
2022-08-25T08:22:24.318Z,51.323441
2022-08-25T08:23:24.317Z,51.323456
2022-08-25T08:24:44.112Z,51.323444
2022-08-25T08:25:27.159Z,51.323441
2022-08-25T08:26:31.672Z,51.323421
2022-08-25T08:27:26.239Z,51.323452
2022-08-25T08:28:24.216Z,51.323437
2022-08-25T08:29:24.204Z,51.323429
2022-08-25T08:30:26.316Z,51.323433
2022-08-25T08:31:24.266Z,51.323441
2022-08-25T08:32:35.440Z,51.323429
2022-08-25T08:33:25.132Z,51.323433
2022-08-25T08:34:25.214Z,51.323429
2022-08-25T08:35:24.101Z,51.323421
2022-08-25T08:36:25.463Z,51.323429
2022-08-25T08:37:24.065Z,51.323437
2022-08-25T08:38:27.139Z,51.323425
2022-08-25T08:39:24.032Z,51.323425
2022-08-25T08:40:24.637Z,51.323429
2022-08-25T08:41:24.216Z,51.323433
2022-08-25T08:42:24.302Z,51.323441
2022-08-25T08:43:25.151Z,51.323444
2022-08-25T08:44:24.271Z,51.323444
2022-08-25T08:45:24.259Z,51.323448
2022-08-25T08:46:29.082Z,51.323441
2022-08-25T08:47:24.169Z,51.323433
2022-08-25T08:48:24.883Z,51.323429
2022-08-25T08:49:26.767Z,51.323429
2022-08-25T08:50:30.675Z,51.323429
2022-08-25T08:51:25.860Z,51.323429
2022-08-25T08:52:24.869Z,51.323448
2022-08-25T08:53:23.802Z,51.323444
2022-08-25T08:54:23.782Z,51.323437
2022-08-25T08:55:23.764Z,51.323437
2022-08-25T08:56:23.778Z,51.323441
2022-08-25T08:57:24.732Z,51.323437
2022-08-25T08:58:26.137Z,51.323421
2022-08-25T08:59:30.125Z,51.323433
2022-08-25T09:00:24.679Z,51.323441
2022-08-25T09:01:23.685Z,51.323433
2022-08-25T09:02:49.741Z,51.323437
2022-08-25T09:03:24.677Z,51.323414
2022-08-25T09:04:24.381Z,51.323433
2022-08-25T09:05:23.589Z,51.323437
2022-08-25T09:06:23.572Z,51.323425
2022-08-25T09:07:23.586Z,51.323433
2022-08-25T09:08:23.538Z,51.323437
2022-08-25T09:09:24.517Z,51.323418
2022-08-25T09:10:23.504Z,51.323441
2022-08-25T09:11:23.485Z,51.323437
2022-08-25T09:12:23.503Z,51.323414
2022-08-25T09:13:26.077Z,51.323425
2022-08-25T09:14:23.438Z,51.323444
2022-08-25T09:15:24.425Z,51.323456
2022-08-25T09:16:31.776Z,51.323460
2022-08-25T09:17:24.411Z,51.323437
2022-08-25T09:18:23.369Z,51.323421
2022-08-25T09:19:23.729Z,51.323421
2022-08-25T09:20:23.333Z,51.323418
2022-08-25T09:21:23.318Z,51.323425
2022-08-25T09:22:35.317Z,51.323421
2022-08-25T09:23:24.281Z,51.323429
2022-08-25T09:24:23.266Z,51.323437
2022-08-25T09:25:39.578Z,51.323429
2022-08-25T09:26:25.233Z,51.323425
2022-08-25T09:27:23.241Z,51.323429
2022-08-25T09:28:23.202Z,51.323402
2022-08-25T09:29:23.195Z,51.323463
2022-08-25T09:30:24.899Z,51.323448
2022-08-25T09:31:26.456Z,51.323418
2022-08-25T09:32:31.444Z,51.323437
2022-08-25T09:33:24.111Z,51.323441
2022-08-25T09:34:23.102Z,51.323448
2022-08-25T09:35:23.076Z,51.323483
2022-08-25T09:36:23.062Z,51.323475
2022-08-25T09:37:23.070Z,51.323444
2022-08-25T09:38:23.034Z,51.323456
2022-08-25T09:39:23.404Z,51.323421
2022-08-25T09:40:22.995Z,51.323437
2022-08-25T09:41:22.973Z,51.323441
2022-08-25T09:42:24.034Z,51.323463
2022-08-25T09:43:23.939Z,51.323460
2022-08-25T09:44:22.921Z,51.323471
2022-08-25T09:45:22.903Z,51.323456
2022-08-25T09:46:22.956Z,51.323479
2022-08-25T09:47:22.893Z,51.323498
2022-08-25T09:48:22.853Z,51.323437
2022-08-25T09:49:22.842Z,51.323498
2022-08-25T09:50:22.818Z,51.323425
2022-08-25T09:51:22.800Z,51.323410
2022-08-25T09:52:22.809Z,51.323235
2022-08-25T09:53:22.770Z,51.323353
2022-08-25T09:54:25.363Z,51.323399
2022-08-25T09:55:22.731Z,51.323502
2022-08-25T09:56:22.724Z,51.323467
2022-08-25T09:57:22.725Z,51.323425
2022-08-25T09:58:22.678Z,51.323380
2022-08-25T09:59:34.275Z,51.323429
2022-08-25T10:00:23.646Z,51.323502
2022-08-25T10:01:22.792Z,51.323509
2022-08-25T10:02:23.624Z,51.323486
2022-08-25T10:03:25.127Z,51.323498
2022-08-25T10:04:22.576Z,51.323448
2022-08-25T10:05:23.458Z,51.323433
2022-08-25T10:06:22.535Z,51.323372
2022-08-25T10:07:22.543Z,51.323414
2022-08-25T10:08:24.708Z,51.323399
2022-08-25T10:09:22.488Z,51.323414
2022-08-25T10:10:22.461Z,51.323406
2022-08-25T10:11:22.442Z,51.323425
2022-08-25T10:12:22.452Z,51.323418
2022-08-25T10:13:23.541Z,51.323441
2022-08-25T10:14:22.389Z,51.323421
2022-08-25T10:15:29.411Z,51.323421
2022-08-25T10:16:24.541Z,51.323421
2022-08-25T10:17:22.359Z,51.323402
2022-08-25T10:18:22.316Z,51.323421
2022-08-25T10:19:22.297Z,51.323437
2022-08-25T10:20:22.277Z,51.323429
2022-08-25T10:21:22.252Z,51.323437
2022-08-25T10:22:22.273Z,51.323425
2022-08-25T10:23:22.218Z,51.323421
2022-08-25T10:24:22.203Z,51.323460
2022-08-25T10:25:22.185Z,51.323437
2022-08-25T10:26:22.162Z,51.323418
2022-08-25T10:27:22.167Z,51.323414
2022-08-25T10:28:22.127Z,51.323402
2022-08-25T10:29:22.275Z,51.323387
2022-08-25T10:30:22.086Z,51.323410
2022-08-25T10:31:23.111Z,51.323406
2022-08-25T10:32:22.087Z,51.323414
2022-08-25T10:33:22.033Z,51.323425
2022-08-25T10:34:22.011Z,51.323425
2022-08-25T10:35:21.995Z,51.323414
2022-08-25T10:36:21.982Z,51.323418
2022-08-25T10:37:22.017Z,51.323410
2022-08-25T10:38:22.057Z,51.323410
2022-08-25T10:39:34.523Z,51.323421
2022-08-25T10:40:22.963Z,51.323429
2022-08-25T10:41:21.886Z,51.323414
2022-08-25T10:42:26.015Z,51.323406
2022-08-25T10:43:23.798Z,51.323410
2022-08-25T10:44:21.837Z,51.323421
2022-08-25T10:45:22.232Z,51.323421
2022-08-25T10:46:21.853Z,51.323410
2022-08-25T10:47:21.811Z,51.323406
2022-08-25T10:48:22.279Z,51.323410
2022-08-25T10:49:21.744Z,51.323387
2022-08-25T10:50:21.724Z,51.323387
2022-08-25T10:51:25.441Z,51.323418
2022-08-25T10:52:22.719Z,51.323410
2022-08-25T10:53:21.669Z,51.323418
2022-08-25T10:54:21.650Z,51.323421
2022-08-25T10:55:21.633Z,51.323410
2022-08-25T10:56:21.618Z,51.323410
2022-08-25T10:57:21.662Z,51.323444
2022-08-25T10:58:23.404Z,51.323421
2022-08-25T10:59:21.562Z,51.323402
2022-08-25T11:00:21.545Z,51.323387
2022-08-25T11:01:21.597Z,51.323395
2022-08-25T11:02:22.542Z,51.323391
2022-08-25T11:03:21.496Z,51.323395
2022-08-25T11:04:22.476Z,51.323406
2022-08-25T11:05:24.675Z,51.323391
2022-08-25T11:06:22.441Z,51.323399
2022-08-25T11:07:21.422Z,51.323410
2022-08-25T11:08:22.433Z,51.323414
2022-08-25T11:09:21.389Z,51.323399
2022-08-25T11:10:21.371Z,51.323418
2022-08-25T11:11:21.357Z,51.323406
2022-08-25T11:12:21.335Z,51.323429
2022-08-25T11:13:21.347Z,51.323410
2022-08-25T11:14:21.313Z,51.323402
2022-08-25T11:15:21.282Z,51.323406
2022-08-25T11:16:21.262Z,51.323425
2022-08-25T11:17:21.278Z,51.323414
2022-08-25T11:18:21.268Z,51.323402
2022-08-25T11:19:21.210Z,51.323418
2022-08-25T11:20:27.106Z,51.323421
2022-08-25T11:21:23.176Z,51.323414
2022-08-25T11:22:21.184Z,51.323418
2022-08-25T11:23:21.140Z,51.323433
2022-08-25T11:24:21.123Z,51.323418
2022-08-25T11:25:21.665Z,51.323395
2022-08-25T11:26:21.086Z,51.323414